Time;durP1;ratioP1;P1;durP2;ratioP2;P2;SDS_P1;SDS_P2;PMS_P1;PMS_P2;Temp;Humidity;BMP_temperature;BMP_pressure;BME280_temperature;BME280_humidity;BME280_pressure;Samples;Min_cycle;Max_cycle;Signal;HPM_P1;HPM_P2
2023/12/20 00:03:01;;;;;;;27.40;24.70;;;;;;;21.45;30.72;95376.97;6146359;28;110226;-57
2023/12/20 00:06:04;;;;;;;26.00;23.23;;;;;;;21.48;30.86;95376.38;6156843;28;108969;-57
2023/12/20 00:09:08;;;;;;;24.00;21.70;;;;;;;21.49;30.55;95372.63;6155819;28;110370;-57
2023/12/20 00:12:12;;;;;;;26.83;24.30;;;;;;;21.49;30.63;95361.97;6146427;28;109078;-57
2023/12/20 00:15:15;;;;;;;24.00;21.70;;;;;;;21.49;30.93;95373.41;6138486;28;109180;-57
2023/12/20 00:18:18;;;;;;;23.50;21.33;;;;;;;21.50;30.67;95375.00;6150925;28;109109;-57
2023/12/20 00:21:21;;;;;;;24.20;21.93;;;;;;;21.50;30.61;95368.88;6157800;28;109101;-57
2023/12/20 00:24:26;;;;;;;23.57;21.37;;;;;;;21.48;30.36;95369.16;6161667;28;110552;-57
2023/12/20 00:27:29;;;;;;;20.60;18.70;;;;;;;21.52;30.21;95362.19;6161357;28;109369;-57
2023/12/20 00:30:32;;;;;;;21.73;19.70;;;;;;;21.51;30.30;95352.63;6150543;28;109182;-57
2023/12/20 00:33:35;;;;;;;23.73;21.43;;;;;;;21.52;30.80;95345.44;6162552;28;109184;-55
2023/12/20 00:36:39;;;;;;;22.90;20.63;;;;;;;21.52;30.34;95343.56;6160550;28;109045;-55
2023/12/20 00:39:43;;;;;;;24.13;21.90;;;;;;;21.54;30.59;95343.25;6157091;28;109761;-56
2023/12/20 00:42:47;;;;;;;24.03;21.73;;;;;;;21.53;30.38;95336.38;6155309;28;110157;-55
2023/12/20 00:45:50;;;;;;;22.83;20.73;;;;;;;21.53;30.64;95336.38;6160677;28;110025;-56
2023/12/20 00:48:53;;;;;;;24.30;22.00;;;;;;;21.52;30.80;95332.13;6137484;28;109254;-55
2023/12/20 00:51:56;;;;;;;24.23;21.83;;;;;;;21.52;30.40;95321.47;6138907;28;109059;-55
2023/12/20 00:55:00;;;;;;;24.47;22.17;;;;;;;21.50;30.79;95323.63;6160159;28;109189;-55
2023/12/20 00:58:04;;;;;;;24.37;22.07;;;;;;;21.49;30.33;95325.47;6161151;28;109988;-55
2023/12/20 01:01:07;;;;;;;25.10;22.77;;;;;;;21.49;30.68;95330.03;6160567;28;110329;-55
2023/12/20 01:04:10;;;;;;;26.50;23.80;;;;;;;21.46;30.61;95318.09;6149317;28;109025;-55
2023/12/20 01:07:13;;;;;;;26.23;23.73;;;;;;;21.47;30.73;95311.69;6160652;28;110140;-55
2023/12/20 01:10:18;;;;;;;27.23;24.67;;;;;;;21.47;30.71;95306.34;6159805;28;109183;-55
2023/12/20 01:13:21;;;;;;;27.50;24.90;;;;;;;21.45;30.61;95308.53;6159598;28;108829;-55
2023/12/20 01:16:24;;;;;;;26.27;23.80;;;;;;;21.45;30.52;95308.53;6150363;28;110225;-55
2023/12/20 01:19:29;;;;;;;27.73;25.03;;;;;;;21.45;30.45;95311.19;6161711;28;110115;-56
2023/12/20 01:22:32;;;;;;;28.77;26.07;;;;;;;21.45;30.50;95302.41;6160677;28;110171;-56
2023/12/20 01:25:36;;;;;;;29.17;26.33;;;;;;;21.43;30.75;95289.41;6155981;28;111610;-56
2023/12/20 01:28:39;;;;;;;27.07;24.57;;;;;;;21.43;30.67;95289.41;6154955;28;109788;-55
2023/12/20 01:31:42;;;;;;;28.10;25.40;;;;;;;21.42;30.68;95287.03;6154236;28;109051;-55
2023/12/20 01:34:46;;;;;;;26.93;24.50;;;;;;;21.43;30.65;95288.63;6159962;28;109499;-55
2023/12/20 01:37:49;;;;;;;28.00;25.33;;;;;;;21.40;30.63;95282.00;6142790;28;109192;-55
2023/12/20 01:40:53;;;;;;;29.63;26.73;;;;;;;21.39;30.81;95267.13;6159313;28;109221;-55
2023/12/20 01:43:56;;;;;;;27.97;25.27;;;;;;;21.40;30.42;95268.69;6155993;28;109066;-59
2023/12/20 01:47:00;;;;;;;28.77;26.03;;;;;;;21.40;30.56;95262.59;6146097;28;110607;-59
2023/12/20 01:50:04;;;;;;;29.20;26.60;;;;;;;21.39;30.19;95259.13;6149391;28;110252;-58
2023/12/20 01:53:09;;;;;;;29.27;26.57;;;;;;;21.39;30.20;95253.81;6159229;28;109263;-58
2023/12/20 01:56:15;;;;;;;27.93;25.20;;;;;;;21.41;30.13;95248.19;6159861;28;110103;-58
2023/12/20 01:59:20;;;;;;;28.00;25.40;;;;;;;21.40;30.13;95243.94;6147626;28;109210;-58
2023/12/20 02:02:23;;;;;;;29.27;26.53;;;;;;;21.39;30.29;95245.81;6149347;28;109301;-58
2023/12/20 02:05:27;;;;;;;29.80;26.93;;;;;;;21.39;30.14;95245.81;6158987;28;109919;-59
2023/12/20 02:08:31;;;;;;;28.87;26.17;;;;;;;21.39;30.14;95245.03;6160809;28;110312;-59
2023/12/20 02:11:37;;;;;;;29.60;26.60;;;;;;;21.39;30.54;95240.50;6149222;28;110033;-59
2023/12/20 02:14:40;;;;;;;29.20;26.50;;;;;;;21.40;30.06;95230.63;6160795;28;109256;-59
2023/12/20 02:17:43;;;;;;;28.73;26.17;;;;;;;21.40;30.48;95233.31;6158749;28;109169;-58
2023/12/20 02:20:47;;;;;;;29.17;26.53;;;;;;;21.38;30.55;95227.50;6142600;28;108979;-59
2023/12/20 02:23:51;;;;;;;28.77;25.97;;;;;;;21.36;30.42;95219.81;6146638;28;109610;-59
2023/12/20 02:26:54;;;;;;;29.17;26.47;;;;;;;21.37;30.41;95221.38;6159448;28;109571;-58
2023/12/20 02:29:57;;;;;;;27.37;24.80;;;;;;;21.37;30.34;95215.25;6144159;28;109212;-59
2023/12/20 02:33:02;;;;;;;28.07;25.50;;;;;;;21.36;30.33;95221.69;6153175;28;109091;-58
2023/12/20 02:36:05;;;;;;;27.50;24.90;;;;;;;21.36;30.18;95208.38;6148399;28;109360;-59
2023/12/20 02:39:10;;;;;;;28.77;26.07;;;;;;;21.35;29.99;95204.13;6160001;28;109169;-59
2023/12/20 02:42:13;;;;;;;27.83;25.03;;;;;;;21.35;29.99;95201.47;6158987;28;108933;-58
2023/12/20 02:45:16;;;;;;;28.97;26.20;;;;;;;21.34;30.12;95200.69;6150350;28;109069;-59
2023/12/20 02:48:19;;;;;;;29.00;26.40;;;;;;;21.33;30.31;95190.31;6158450;28;109237;-58
2023/12/20 02:51:22;;;;;;;29.00;26.30;;;;;;;21.34;30.11;95194.53;6158809;28;109353;-58
2023/12/20 02:54:26;;;;;;;30.07;27.17;;;;;;;21.33;30.10;95196.41;6159831;28;109292;-58
2023/12/20 02:57:29;;;;;;;29.10;26.30;;;;;;;21.34;30.33;95190.03;6147821;28;109744;-57
2023/12/20 03:00:32;;;;;;;30.03;26.83;;;;;;;21.34;30.27;95187.38;6162029;28;109114;-57
2023/12/20 03:03:35;;;;;;;28.67;25.87;;;;;;;21.35;30.34;95191.59;6159182;28;109148;-57
2023/12/20 03:06:39;;;;;;;28.20;25.53;;;;;;;21.36;30.12;95187.06;6161484;28;110083;-57
2023/12/20 03:09:43;;;;;;;30.20;27.30;;;;;;;21.35;30.06;95196.94;6153842;28;109653;-57
2023/12/20 03:13:06;;;;;;;29.13;26.33;;;;;;;21.35;30.18;95194.28;6154826;28;111452;-57
2023/12/20 03:16:10;;;;;;;29.90;26.90;;;;;;;21.35;29.99;95191.59;6142452;28;109053;-57
2023/12/20 03:19:13;;;;;;;28.57;25.80;;;;;;;21.32;30.05;95183.41;6154834;28;109330;-57
2023/12/20 03:22:16;;;;;;;28.47;25.77;;;;;;;21.35;30.21;95191.59;6145013;28;110011;-57
2023/12/20 03:25:21;;;;;;;28.93;26.23;;;;;;;21.34;30.23;95183.88;6162395;28;109024;-57
2023/12/20 03:28:24;;;;;;;29.40;26.50;;;;;;;21.34;30.03;95184.72;6161793;28;109183;-57
2023/12/20 03:31:27;;;;;;;28.00;25.20;;;;;;;21.33;29.97;95188.44;6150706;28;109108;-57
2023/12/20 03:34:30;;;;;;;28.60;25.90;;;;;;;21.33;29.83;95183.09;6147198;28;109003;-57
2023/12/20 03:37:34;;;;;;;27.87;25.17;;;;;;;21.34;30.09;95179.38;6146000;28;109048;-57
2023/12/20 03:40:39;;;;;;;29.10;26.30;;;;;;;21.33;29.76;95177.00;6162827;28;109025;-57
2023/12/20 03:43:42;;;;;;;27.57;25.00;;;;;;;21.33;29.97;95175.13;6151395;28;110062;-57
2023/12/20 03:46:46;;;;;;;29.40;26.50;;;;;;;21.34;29.79;95173.25;6163234;28;109529;-57
2023/12/20 03:49:49;;;;;;;28.50;25.70;;;;;;;21.35;29.94;95177.50;6150836;28;109405;-57
2023/12/20 03:52:52;;;;;;;27.13;24.47;;;;;;;21.36;29.81;95174.56;6158151;28;109265;-57
2023/12/20 03:55:57;;;;;;;28.37;25.60;;;;;;;21.35;29.73;95172.97;6156620;28;110068;-57
2023/12/20 03:59:00;;;;;;;28.60;25.87;;;;;;;21.35;29.69;95167.66;6160846;28;110559;-57
2023/12/20 04:02:03;;;;;;;27.40;24.70;;;;;;;21.35;30.18;95158.88;6161357;28;110229;-58
2023/12/20 04:05:07;;;;;;;27.00;24.50;;;;;;;21.35;29.88;95150.88;6131124;28;110420;-57
2023/12/20 04:08:10;;;;;;;28.10;25.37;;;;;;;21.38;29.44;95153.75;6148982;28;109462;-58
2023/12/20 04:11:15;;;;;;;29.20;26.30;;;;;;;21.39;29.93;95149.19;6159741;28;109072;-57
2023/12/20 04:14:18;;;;;;;27.57;24.97;;;;;;;21.40;30.15;95150.78;6161065;28;110238;-57
2023/12/20 04:17:22;;;;;;;29.80;26.83;;;;;;;21.43;30.19;95150.19;6151122;28;110903;-57
2023/12/20 04:20:25;;;;;;;27.97;25.17;;;;;;;21.40;30.35;95146.25;6160752;28;109253;-58
2023/12/20 04:23:28;;;;;;;29.00;26.17;;;;;;;21.46;30.00;95152.25;6160454;28;109090;-60
2023/12/20 04:26:33;;;;;;;28.07;25.00;;;;;;;21.43;30.43;95155.50;6157995;28;110235;-58
2023/12/20 04:29:36;;;;;;;28.33;25.43;;;;;;;21.38;30.23;95137.78;6147826;28;110097;-57
2023/12/20 04:32:39;;;;;;;29.50;26.00;;;;;;;21.39;30.16;95134.03;6160921;28;110076;-58
2023/12/20 04:35:42;;;;;;;28.60;25.50;;;;;;;21.38;30.54;95136.97;6162764;28;110228;-58
2023/12/20 04:38:45;;;;;;;28.73;25.53;;;;;;;21.36;30.37;95129.28;6153944;28;109733;-57
2023/12/20 04:41:50;;;;;;;29.47;26.57;;;;;;;21.43;30.38;95129.66;6154038;28;110003;-57
2023/12/20 04:44:53;;;;;;;28.33;25.33;;;;;;;21.44;30.36;95125.91;6161121;28;109556;-57
2023/12/20 04:47:56;;;;;;;27.90;25.10;;;;;;;21.38;30.95;95129.78;6153790;28;110120;-57
2023/12/20 04:50:59;;;;;;;28.33;25.43;;;;;;;21.39;31.03;95125.25;6147532;28;109299;-57
2023/12/20 04:54:03;;;;;;;26.60;23.63;;;;;;;21.41;31.69;95115.88;6159724;28;111191;-57
2023/12/20 04:57:07;;;;;;;27.27;24.33;;;;;;;21.39;31.52;95112.72;6161623;28;109107;-57
2023/12/20 05:00:12;;;;;;;28.20;23.93;;;;;;;21.33;31.54;95105.91;6149449;28;109082;-57
2023/12/20 05:03:15;;;;;;;25.63;22.70;;;;;;;21.35;31.94;95113.63;6144323;28;109286;-57
2023/12/20 05:06:18;;;;;;;26.13;23.50;;;;;;;21.33;31.72;95110.44;6160711;28;109064;-57
2023/12/20 05:09:21;;;;;;;25.30;22.60;;;;;;;21.35;32.01;95121.63;6154584;28;109068;-57
2023/12/20 05:12:25;;;;;;;24.43;21.80;;;;;;;21.39;31.75;95112.72;6150160;28;109840;-61
2023/12/20 05:15:28;;;;;;;25.57;22.20;;;;;;;21.36;31.53;95118.66;6153965;28;109512;-65
2023/12/20 05:18:31;;;;;;;27.63;22.07;;;;;;;21.32;31.73;95100.88;6161354;28;109268;-58
2023/12/20 05:21:35;;;;;;;24.00;21.60;;;;;;;21.28;31.82;95107.91;6161047;28;109508;-57
2023/12/20 05:24:38;;;;;;;23.90;21.50;;;;;;;21.23;32.12;95098.16;6150061;28;109208;-57
2023/12/20 05:27:43;;;;;;;22.97;20.67;;;;;;;21.21;31.82;95095.81;6160920;28;109553;-56
2023/12/20 05:30:47;;;;;;;24.43;22.00;;;;;;;21.20;32.00;95088.91;6160680;28;110096;-57
2023/12/20 05:33:50;;;;;;;22.23;20.23;;;;;;;21.18;32.17;95079.66;6161472;28;110032;-56
2023/12/20 05:36:53;;;;;;;23.60;21.20;;;;;;;21.19;31.63;95087.34;6150531;28;109286;-57
2023/12/20 05:39:56;;;;;;;22.67;20.40;;;;;;;21.19;31.62;95086.53;6161006;28;109518;-56
2023/12/20 05:43:01;;;;;;;21.67;19.57;;;;;;;21.19;31.52;95090.00;6160663;28;109339;-56
2023/12/20 05:46:04;;;;;;;21.20;19.10;;;;;;;21.23;31.60;95087.50;6160526;28;109648;-55
2023/12/20 05:49:07;;;;;;;21.30;19.17;;;;;;;21.19;31.53;95081.22;6150342;28;110005;-62
2023/12/20 05:52:10;;;;;;;20.83;18.90;;;;;;;21.18;31.37;95072.44;6161182;28;109637;-57
2023/12/20 05:55:14;;;;;;;21.43;19.23;;;;;;;21.18;31.33;95079.66;6160449;28;109187;-57
2023/12/20 05:58:18;;;;;;;20.97;18.97;;;;;;;21.17;31.32;95078.03;6155255;28;109231;-56
2023/12/20 06:01:21;;;;;;;20.33;18.13;;;;;;;21.17;31.33;95062.09;6156550;28;110062;-59
2023/12/20 06:04:25;;;;;;;20.73;18.77;;;;;;;21.17;31.51;95070.06;6160244;28;109137;-57
2023/12/20 06:07:28;;;;;;;20.63;18.57;;;;;;;21.16;31.26;95065.81;6160647;28;109094;-57
2023/12/20 06:10:31;;;;;;;19.00;17.20;;;;;;;21.15;30.98;95066.91;6149316;28;109385;-56
2023/12/20 06:13:36;;;;;;;19.87;17.77;;;;;;;21.14;31.00;95068.78;6160840;28;110098;-57
2023/12/20 06:16:39;;;;;;;18.23;16.53;;;;;;;21.15;31.33;95069.56;6159826;28;109212;-57
2023/12/20 06:19:44;;;;;;;18.63;16.83;;;;;;;21.13;31.26;95056.56;6160480;28;109710;-57
2023/12/20 06:22:48;;;;;;;18.80;16.90;;;;;;;21.13;31.23;95067.22;6150404;28;110080;-66
2023/12/20 06:25:51;;;;;;;17.53;15.83;;;;;;;21.12;31.13;95070.97;6160428;28;109117;-57
2023/12/20 06:28:55;;;;;;;17.67;16.07;;;;;;;21.12;31.24;95072.84;6160400;28;109117;-56
2023/12/20 06:31:58;;;;;;;18.30;16.60;;;;;;;21.12;30.54;95075.50;6154926;28;109244;-57
2023/12/20 06:35:01;;;;;;;18.00;16.30;;;;;;;21.11;31.09;95071.25;6157013;28;110258;-58
2023/12/20 06:38:04;;;;;;;16.43;14.93;;;;;;;21.11;30.97;95069.41;6164398;28;109318;-56
2023/12/20 06:41:08;;;;;;;18.23;16.43;;;;;;;21.10;31.18;95067.81;6164346;28;109311;-57
2023/12/20 06:44:12;;;;;;;18.77;16.87;;;;;;;21.10;30.84;95065.16;6155748;28;109500;-57
2023/12/20 06:47:15;;;;;;;17.50;15.87;;;;;;;21.10;30.97;95062.50;6163789;28;109579;-57
2023/12/20 06:50:18;;;;;;;18.20;16.43;;;;;;;21.10;30.91;95054.50;6164015;28;108966;-61
2023/12/20 06:53:21;;;;;;;19.33;17.30;;;;;;;21.10;30.81;95051.06;6163938;28;109201;-57
2023/12/20 06:56:24;;;;;;;18.37;16.67;;;;;;;21.10;30.64;95046.53;6153556;28;110102;-56
2023/12/20 06:59:29;;;;;;;24.50;18.17;;;;;;;21.10;30.88;95056.38;6163846;28;109259;-57
2023/12/20 07:02:32;;;;;;;19.67;17.87;;;;;;;21.09;30.46;95044.19;6164173;28;109080;-57
2023/12/20 07:05:35;;;;;;;18.40;16.60;;;;;;;21.09;30.58;95052.94;6164268;28;110012;-57
2023/12/20 07:08:38;;;;;;;19.13;17.23;;;;;;;21.09;30.40;95036.19;6153174;28;110505;-56
2023/12/20 07:11:41;;;;;;;20.93;18.83;;;;;;;21.09;30.44;95033.53;6163838;28;109298;-59
2023/12/20 07:14:45;;;;;;;20.83;18.73;;;;;;;21.09;30.21;95034.31;6163646;28;109260;-60
2023/12/20 07:17:48;;;;;;;21.60;19.40;;;;;;;21.10;30.05;95025.25;6157351;28;109373;-57
2023/12/20 07:20:54;;;;;;;20.77;18.67;;;;;;;21.10;30.02;95027.13;6159805;28;110138;-58
2023/12/20 07:23:57;;;;;;;19.27;17.40;;;;;;;21.11;30.16;95042.78;6163350;28;109610;-57
2023/12/20 07:27:00;;;;;;;21.20;19.10;;;;;;;21.10;30.38;95035.88;6163611;28;109091;-57
2023/12/20 07:30:06;;;;;;;19.57;17.70;;;;;;;21.10;30.19;95011.16;6152849;28;109911;-57
2023/12/20 07:33:10;;;;;;;21.10;18.90;;;;;;;21.12;29.91;95019.63;6163220;28;110358;-57
2023/12/20 07:36:13;;;;;;;18.63;16.77;;;;;;;21.19;29.85;95017.34;6139064;28;109059;-62
2023/12/20 07:39:16;;;;;;;20.77;17.70;;;;;;;21.29;30.09;95017.09;6148240;28;109984;-63
2023/12/20 07:42:19;;;;;;;19.97;18.10;;;;;;;21.40;30.15;95020.34;6152614;28;109180;-64
2023/12/20 07:45:24;;;;;;;21.17;18.87;;;;;;;21.43;30.56;95033.81;6163248;28;110120;-62
2023/12/20 07:48:27;;;;;;;19.53;17.53;;;;;;;21.41;30.39;95024.56;6162557;28;110124;-72
2023/12/20 07:51:30;;;;;;;19.07;17.00;;;;;;;21.44;30.83;95023.97;6158172;28;109066;-62
2023/12/20 07:54:33;;;;;;;21.00;17.57;;;;;;;21.45;30.77;95012.22;6157295;28;110145;-62
2023/12/20 07:57:36;;;;;;;18.80;16.90;;;;;;;21.47;30.62;95010.81;6163316;28;109905;-62
2023/12/20 08:00:41;;;;;;;19.50;17.57;;;;;;;21.46;30.43;95011.91;6162794;28;110068;-62
2023/12/20 08:03:44;;;;;;;19.70;17.70;;;;;;;21.49;30.65;95016.63;6152081;28;110011;-62
2023/12/20 08:06:47;;;;;;;20.40;18.20;;;;;;;21.54;31.03;95007.75;6162726;28;109238;-62
2023/12/20 08:09:51;;;;;;;20.53;17.93;;;;;;;21.59;30.54;95014.84;6163116;28;110088;-62
2023/12/20 08:12:55;;;;;;;19.20;17.30;;;;;;;21.63;30.76;95010.47;6163090;28;108835;-62
2023/12/20 08:15:59;;;;;;;19.77;17.77;;;;;;;21.63;30.50;94999.81;6151224;28;109870;-63
2023/12/20 08:19:06;;;;;;;18.20;16.50;;;;;;;21.65;30.41;94987.78;6162446;28;110193;-63
2023/12/20 08:22:09;;;;;;;19.37;17.00;;;;;;;21.63;30.61;94989.16;6162332;28;109164;-64
2023/12/20 08:25:12;;;;;;;18.37;16.67;;;;;;;21.67;30.71;95006.09;6162288;28;109971;-61
2023/12/20 08:28:15;;;;;;;18.90;17.00;;;;;;;21.65;30.29;95005.63;6152544;28;110070;-63
2023/12/20 08:31:20;;;;;;;21.03;18.30;;;;;;;21.66;30.78;94991.22;6161496;28;109182;-62
2023/12/20 08:34:24;;;;;;;19.27;17.27;;;;;;;21.60;30.58;94976.47;6162008;28;109135;-63
2023/12/20 08:37:27;;;;;;;19.50;17.50;;;;;;;21.63;30.41;94973.19;6154448;28;109132;-60
2023/12/20 08:40:31;;;;;;;19.17;17.30;;;;;;;21.64;30.62;94964.91;6160241;28;109146;-63
2023/12/20 08:43:35;;;;;;;19.30;17.30;;;;;;;21.61;30.60;94964.72;6161559;28;108994;-62
2023/12/20 08:46:39;;;;;;;17.67;15.90;;;;;;;21.63;30.70;94962.53;6162479;28;110246;-57
2023/12/20 08:49:43;;;;;;;18.80;17.00;;;;;;;21.64;30.43;94964.09;6150547;28;109311;-58
2023/12/20 08:52:46;;;;;;;20.33;17.63;;;;;;;21.63;30.25;94965.19;6162460;28;110323;-58
2023/12/20 08:55:49;;;;;;;19.67;17.77;;;;;;;21.62;30.19;94960.97;6162034;28;109719;-58
2023/12/20 08:58:52;;;;;;;19.50;17.60;;;;;;;21.46;30.55;94952.56;6161083;28;109022;-58
2023/12/20 09:01:57;;;;;;;19.60;17.80;;;;;;;21.38;30.93;94956.75;6152114;28;110141;-56
2023/12/20 09:05:00;;;;;;;19.07;17.10;;;;;;;21.34;31.30;94939.81;6161635;28;109193;-59
2023/12/20 09:08:04;;;;;;;18.33;16.57;;;;;;;21.30;30.72;94928.19;6162122;28;110906;-57
2023/12/20 09:11:07;;;;;;;19.93;18.03;;;;;;;21.30;31.24;94925.53;6156922;28;109536;-57
2023/12/20 09:14:11;;;;;;;19.30;17.40;;;;;;;21.26;30.60;94905.94;6156274;28;109410;-56
2023/12/20 09:17:16;;;;;;;19.83;18.03;;;;;;;21.26;30.96;94899.84;6161396;28;109116;-57
2023/12/20 09:20:19;;;;;;;20.53;17.90;;;;;;;21.24;30.72;94892.16;6160953;28;110125;-56
2023/12/20 09:23:22;;;;;;;19.60;17.60;;;;;;;21.24;30.77;94896.69;6150692;28;109936;-56
2023/12/20 09:26:25;;;;;;;20.40;18.33;;;;;;;21.22;30.75;94881.03;6160975;28;109235;-56
2023/12/20 09:29:28;;;;;;;20.27;18.10;;;;;;;21.21;30.82;94866.16;6160795;28;109299;-56
2023/12/20 09:32:32;;;;;;;19.73;17.83;;;;;;;21.20;30.39;94864.59;6160878;28;110282;-60
2023/12/20 09:35:36;;;;;;;20.97;18.87;;;;;;;21.19;30.69;94858.47;6150545;28;110090;-57
2023/12/20 09:38:40;;;;;;;19.57;17.67;;;;;;;21.19;30.52;94853.16;6161381;28;110168;-57
2023/12/20 09:41:46;;;;;;;21.77;19.67;;;;;;;21.19;30.71;94855.03;6161361;28;110184;-57
2023/12/20 09:44:49;;;;;;;21.47;19.20;;;;;;;21.17;30.57;94841.22;6161072;28;109297;-60
2023/12/20 09:47:54;;;;;;;20.67;18.50;;;;;;;21.17;30.65;94833.25;6150930;28;109115;-58
2023/12/20 09:50:57;;;;;;;20.63;18.73;;;;;;;21.16;30.32;94827.13;6159827;28;109093;-56
2023/12/20 09:54:04;;;;;;;22.33;20.10;;;;;;;21.17;30.77;94834.06;6161036;28;109227;-56
2023/12/20 09:57:07;;;;;;;19.77;17.97;;;;;;;21.18;30.36;94827.63;6150480;28;109330;-62
2023/12/20 10:00:11;;;;;;;20.03;17.93;;;;;;;21.17;30.22;94823.41;6160879;28;111478;-62
2023/12/20 10:03:16;;;;;;;20.17;18.13;;;;;;;21.19;30.33;94812.47;6160855;28;109078;-66
2023/12/20 10:06:19;;;;;;;20.47;18.47;;;;;;;21.20;29.82;94800.72;6160514;28;109238;-61
2023/12/20 10:09:22;;;;;;;20.00;18.20;;;;;;;21.21;30.40;94789.78;6149617;28;109076;-61
2023/12/20 10:12:25;;;;;;;19.53;17.73;;;;;;;21.23;30.27;94797.44;6160663;28;109103;-61
2023/12/20 10:15:30;;;;;;;19.17;17.47;;;;;;;21.23;29.97;94792.13;6161256;28;108496;-62
2023/12/20 10:18:35;;;;;;;19.50;17.60;;;;;;;21.22;29.97;94787.88;6160386;28;109232;-62
2023/12/20 10:21:43;;;;;;;21.17;19.07;;;;;;;21.21;30.12;94781.78;6149692;28;110249;-61
2023/12/20 10:24:47;;;;;;;20.10;18.20;;;;;;;21.23;30.28;94778.03;6160143;28;109074;-62
2023/12/20 10:27:51;;;;;;;19.33;17.53;;;;;;;21.20;30.05;94774.91;6160180;28;109162;-62
2023/12/20 10:30:56;;;;;;;20.00;17.90;;;;;;;21.20;29.97;94768.78;6155059;28;109927;-62
2023/12/20 10:34:02;;;;;;;19.50;17.60;;;;;;;21.19;30.40;94761.91;6155528;28;110146;-62
2023/12/20 10:37:05;;;;;;;20.27;18.37;;;;;;;21.19;30.18;94759.25;6160156;28;109359;-62
2023/12/20 10:40:09;;;;;;;20.53;18.63;;;;;;;21.19;30.29;94752.03;6160332;28;109150;-62
2023/12/20 10:43:13;;;;;;;21.50;19.33;;;;;;;21.22;29.93;94750.63;6149380;28;108996;-62
2023/12/20 10:46:18;;;;;;;20.67;18.67;;;;;;;21.23;29.93;94744.22;6159772;28;109429;-61
2023/12/20 10:49:24;;;;;;;21.00;18.90;;;;;;;21.26;29.75;94745.47;6160225;28;109140;-62
2023/12/20 10:52:30;;;;;;;20.60;18.60;;;;;;;21.27;30.22;94726.53;6159542;28;110069;-66
2023/12/20 10:55:34;;;;;;;20.77;18.77;;;;;;;21.30;30.12;94722.47;6150777;28;110129;-62
2023/12/20 10:58:40;;;;;;;19.73;17.97;;;;;;;21.30;30.26;94733.91;6160282;28;110130;-64
2023/12/20 11:01:43;;;;;;;19.70;17.87;;;;;;;21.31;30.29;94719.50;6159810;28;108820;-62
2023/12/20 11:04:56;;;;;;;20.23;18.23;;;;;;;21.29;30.17;94724.34;6154392;28;109034;-61
2023/12/20 11:08:03;;;;;;;21.13;18.97;;;;;;;21.27;30.79;94699.94;6155308;28;110192;-56
2023/12/20 11:11:13;;;;;;;20.37;18.27;;;;;;;21.26;30.37;94709.00;6159675;28;110499;-57
2023/12/20 11:14:20;;;;;;;19.77;17.90;;;;;;;21.25;30.54;94701.34;6159780;28;109765;-56
2023/12/20 11:17:23;;;;;;;20.50;18.60;;;;;;;21.24;30.30;94689.13;6149302;28;110189;-56
2023/12/20 11:20:37;;;;;;;19.17;17.47;;;;;;;21.24;30.33;94686.47;6160816;28;109243;-61
2023/12/20 11:23:43;;;;;;;19.60;17.70;;;;;;;21.22;30.65;94684.13;6163622;28;110256;-56
2023/12/20 11:26:48;;;;;;;21.07;18.97;;;;;;;21.22;30.04;94670.81;6163545;28;109539;-57
2023/12/20 11:29:53;;;;;;;20.10;18.20;;;;;;;21.23;30.24;94659.06;6153364;28;108787;-56
2023/12/20 11:32:56;;;;;;;19.07;17.37;;;;;;;21.20;30.38;94652.50;6162527;28;108934;-57
2023/12/20 11:36:02;;;;;;;19.83;18.10;;;;;;;21.19;30.31;94650.16;6163752;28;110275;-57
2023/12/20 11:39:08;;;;;;;20.00;18.10;;;;;;;21.18;30.66;94640.59;6158193;28;110027;-66
2023/12/20 11:42:15;;;;;;;20.03;18.13;;;;;;;21.17;30.71;94639.00;6161053;28;109984;-57
2023/12/20 11:45:21;;;;;;;19.90;17.93;;;;;;;21.16;30.38;94634.78;6163895;28;110185;-57
2023/12/20 11:48:25;;;;;;;19.97;17.97;;;;;;;21.16;30.48;94630.22;6163401;28;109092;-65
2023/12/20 11:51:30;;;;;;;19.57;17.77;;;;;;;21.18;30.58;94616.66;6152128;28;109238;-58
2023/12/20 11:54:33;;;;;;;19.77;17.77;;;;;;;21.19;30.35;94612.88;6162841;28;110096;-58
2023/12/20 11:57:37;;;;;;;20.13;18.23;;;;;;;21.16;30.42;94608.16;6162920;28;109381;-56
2023/12/20 12:00:40;;;;;;;19.77;17.90;;;;;;;21.20;30.44;94603.81;6163156;28;110474;-57
2023/12/20 12:03:43;;;;;;;20.30;18.40;;;;;;;21.19;30.31;94587.06;6152089;28;109266;-58
2023/12/20 12:06:48;;;;;;;20.57;18.50;;;;;;;21.21;30.07;94600.06;6163240;28;110097;-58
2023/12/20 12:09:51;;;;;;;19.30;17.40;;;;;;;21.22;30.20;94580.34;6162778;28;109409;-57
2023/12/20 12:12:55;;;;;;;19.07;17.17;;;;;;;21.21;30.35;94570.78;6157508;28;109281;-57
2023/12/20 12:15:59;;;;;;;19.03;17.23;;;;;;;21.23;30.14;94568.59;6157737;28;109399;-57
2023/12/20 12:19:04;;;;;;;19.70;17.80;;;;;;;21.24;30.11;94572.81;6163311;28;108972;-56
2023/12/20 12:22:12;;;;;;;19.70;17.80;;;;;;;21.26;30.43;94572.50;6162484;28;109136;-57
2023/12/20 12:25:18;;;;;;;20.40;18.50;;;;;;;21.27;29.97;94561.53;6151684;28;110054;-57
2023/12/20 12:28:22;;;;;;;19.87;17.87;;;;;;;21.28;30.07;94557.78;6162542;28;108926;-57
2023/12/20 12:31:26;;;;;;;19.73;17.83;;;;;;;21.29;30.39;94537.28;6160890;28;108857;-58
2023/12/20 12:34:30;;;;;;;19.27;17.47;;;;;;;21.29;30.37;94540.72;6162940;28;110277;-57
2023/12/20 12:37:39;;;;;;;20.33;18.30;;;;;;;21.30;30.34;94549.50;6152327;28;109978;-60
2023/12/20 12:40:44;;;;;;;19.00;17.17;;;;;;;21.29;30.36;94538.06;6162527;28;110021;-56
2023/12/20 12:43:47;;;;;;;19.30;17.60;;;;;;;21.26;30.08;94528.06;6162052;28;109062;-57
2023/12/20 12:46:51;;;;;;;19.93;18.17;;;;;;;21.29;30.21;94532.75;6157562;28;109145;-57
2023/12/20 12:49:54;;;;;;;19.27;17.53;;;;;;;21.29;30.42;94537.28;6156370;28;109211;-56
2023/12/20 12:52:59;;;;;;;19.83;17.87;;;;;;;21.29;30.28;94535.41;6162374;28;110136;-57
2023/12/20 12:56:02;;;;;;;18.87;17.03;;;;;;;21.29;30.27;94526.63;6161606;28;109178;-57
2023/12/20 12:59:05;;;;;;;18.70;17.00;;;;;;;21.31;30.13;94519.91;6151917;28;109056;-57
2023/12/20 13:02:09;;;;;;;20.43;18.53;;;;;;;21.31;30.42;94529.75;6161584;28;109347;-57
2023/12/20 13:05:12;;;;;;;18.70;17.00;;;;;;;21.29;30.08;94535.41;6162111;28;109965;-58
2023/12/20 13:08:17;;;;;;;18.80;17.00;;;;;;;21.29;30.47;94542.59;6161620;28;109174;-57
2023/12/20 13:11:20;;;;;;;20.40;17.93;;;;;;;21.29;30.25;94540.72;6151518;28;110325;-61
2023/12/20 13:14:23;;;;;;;19.07;17.17;;;;;;;21.29;30.46;94532.75;6137863;28;110217;-57
2023/12/20 13:17:26;;;;;;;18.30;16.50;;;;;;;21.29;30.34;94537.28;6153598;28;109242;-57
2023/12/20 13:20:33;;;;;;;18.30;16.60;;;;;;;21.28;30.63;94525.84;6161846;28;110332;-58
2023/12/20 13:23:37;;;;;;;19.77;17.83;;;;;;;21.30;30.33;94534.31;6151050;28;110238;-57
2023/12/20 13:26:43;;;;;;;19.00;17.20;;;;;;;21.27;30.51;94526.94;6161375;28;109497;-57
2023/12/20 13:29:46;;;;;;;18.07;16.47;;;;;;;21.28;30.18;94517.88;6161956;28;110069;-57
2023/12/20 13:32:49;;;;;;;19.40;17.60;;;;;;;21.29;30.57;94522.09;6150842;28;110154;-57
2023/12/20 13:35:53;;;;;;;18.33;16.53;;;;;;;21.29;30.15;94510.66;6161120;28;110013;-57
2023/12/20 13:38:57;;;;;;;17.43;15.87;;;;;;;21.27;30.31;94496.91;6161707;28;110210;-57
2023/12/20 13:42:00;;;;;;;18.73;17.00;;;;;;;21.26;30.01;94512.09;6161112;28;109818;-57
2023/12/20 13:45:04;;;;;;;17.43;15.83;;;;;;;21.25;30.44;94499.88;6150681;28;110516;-57
2023/12/20 13:48:08;;;;;;;17.83;16.20;;;;;;;21.25;30.04;94512.41;6161683;28;109814;-57
2023/12/20 13:51:11;;;;;;;16.87;15.03;;;;;;;21.24;30.12;94497.53;6161212;28;109483;-57
2023/12/20 13:54:19;;;;;;;17.60;16.00;;;;;;;21.25;30.19;94502.53;6160907;28;109233;-57
2023/12/20 13:57:22;;;;;;;17.50;15.90;;;;;;;21.23;30.11;94480.78;6149881;28;109897;-58